createdAt,value
2017-08-31T00:00:23.043Z,1001.61
2017-08-31T00:01:23.066Z,1001.58
2017-08-31T00:02:22.936Z,1001.59
2017-08-31T00:03:22.935Z,1001.62
2017-08-31T00:04:22.930Z,1001.7
2017-08-31T00:05:22.911Z,1001.69
2017-08-31T00:06:22.876Z,1001.71
2017-08-31T00:07:22.589Z,1001.71
2017-08-31T00:08:22.566Z,1001.67
2017-08-31T00:09:22.547Z,1001.67
2017-08-31T00:10:22.524Z,1001.63
2017-08-31T00:11:22.508Z,1001.61
2017-08-31T00:12:22.488Z,1001.64
2017-08-31T00:13:22.466Z,1001.71
2017-08-31T00:14:22.447Z,1001.79
2017-08-31T00:15:22.428Z,1001.77
2017-08-31T00:16:22.407Z,1001.8
2017-08-31T00:17:22.387Z,1001.78
2017-08-31T00:18:22.373Z,1001.75
2017-08-31T00:19:22.347Z,1001.78
2017-08-31T00:20:22.326Z,1001.76
2017-08-31T00:21:22.659Z,1001.76
2017-08-31T00:22:22.618Z,1001.73
2017-08-31T00:23:22.581Z,1001.77
2017-08-31T00:24:22.599Z,1001.75
2017-08-31T00:25:22.643Z,1001.73
2017-08-31T00:26:22.557Z,1001.72
2017-08-31T00:27:22.582Z,1001.73
2017-08-31T00:28:22.464Z,1001.73
2017-08-31T00:29:22.485Z,1001.74
2017-08-31T00:30:22.559Z,1001.74
2017-08-31T00:31:22.448Z,1001.75
2017-08-31T00:32:22.347Z,1001.71
2017-08-31T00:33:22.121Z,1001.73
2017-08-31T00:34:22.383Z,1001.74
2017-08-31T00:35:22.271Z,1001.73
2017-08-31T00:36:22.220Z,1001.72
2017-08-31T00:37:21.990Z,1001.66
2017-08-31T00:38:22.259Z,1001.69
2017-08-31T00:39:22.131Z,1001.71
2017-08-31T00:40:22.211Z,1001.68
2017-08-31T00:41:22.336Z,1001.7
2017-08-31T00:42:22.040Z,1001.65
2017-08-31T00:43:21.922Z,1001.71
2017-08-31T00:44:21.847Z,1001.7
2017-08-31T00:45:22.210Z,1001.73
2017-08-31T00:46:22.115Z,1001.72
2017-08-31T00:47:22.033Z,1001.71
2017-08-31T00:48:22.069Z,1001.73
2017-08-31T00:49:22.081Z,1001.7
2017-08-31T00:50:22.078Z,1001.71
2017-08-31T00:51:22.078Z,1001.73
2017-08-31T00:52:22.080Z,1001.72
2017-08-31T00:53:22.000Z,1001.72
2017-08-31T00:54:21.995Z,1001.71
2017-08-31T00:55:21.961Z,1001.7
2017-08-31T00:56:21.905Z,1001.66
2017-08-31T00:57:22.015Z,1001.69
2017-08-31T00:58:21.866Z,1001.75
2017-08-31T00:59:21.866Z,1001.79
2017-08-31T01:00:21.889Z,1001.72
2017-08-31T01:01:21.918Z,1001.77
2017-08-31T01:02:21.828Z,1001.79
2017-08-31T01:03:21.648Z,1001.8
2017-08-31T01:04:21.794Z,1001.79
2017-08-31T01:05:21.867Z,1001.81
2017-08-31T01:06:21.823Z,1001.87
2017-08-31T01:07:21.702Z,1001.94
2017-08-31T01:08:21.655Z,1001.99
2017-08-31T01:09:21.774Z,1002.04
2017-08-31T01:10:21.689Z,1002.01
2017-08-31T01:11:21.625Z,1002.01
2017-08-31T01:12:21.294Z,1002.05
2017-08-31T01:13:21.654Z,1002.1
2017-08-31T01:14:21.523Z,1002.14
2017-08-31T01:15:21.233Z,1002.25
2017-08-31T01:16:21.208Z,1002.25
2017-08-31T01:17:21.189Z,1002.23
2017-08-31T01:18:21.173Z,1002.26
2017-08-31T01:19:21.148Z,1002.31
2017-08-31T01:20:21.129Z,1002.29
2017-08-31T01:21:21.110Z,1002.36
2017-08-31T01:22:21.089Z,1002.36
2017-08-31T01:23:21.069Z,1002.37
2017-08-31T01:24:21.050Z,1002.4
2017-08-31T01:25:21.027Z,1002.43
2017-08-31T01:26:21.012Z,1002.41
2017-08-31T01:27:20.989Z,1002.48
2017-08-31T01:28:20.969Z,1002.45
2017-08-31T01:29:20.951Z,1002.5
2017-08-31T01:30:20.935Z,1002.52
2017-08-31T01:31:20.914Z,1002.49
2017-08-31T01:32:20.890Z,1002.49
2017-08-31T01:33:20.870Z,1002.5
2017-08-31T01:34:20.851Z,1002.5
2017-08-31T01:35:20.831Z,1002.48
2017-08-31T01:36:20.812Z,1002.53
2017-08-31T01:37:20.789Z,1002.59
2017-08-31T01:38:20.771Z,1002.6
2017-08-31T01:39:20.750Z,1002.62
2017-08-31T01:40:20.731Z,1002.62
2017-08-31T01:41:20.710Z,1002.61
2017-08-31T01:42:20.694Z,1002.65
2017-08-31T01:43:20.671Z,1002.6
2017-08-31T01:44:20.652Z,1002.59
2017-08-31T01:45:20.635Z,1002.51
2017-08-31T01:46:20.610Z,1002.5
2017-08-31T01:47:20.590Z,1002.48
2017-08-31T01:48:20.569Z,1002.53
2017-08-31T01:49:20.604Z,1002.53
2017-08-31T01:50:20.531Z,1002.53
2017-08-31T01:51:20.509Z,1002.56
2017-08-31T01:52:20.490Z,1002.54
2017-08-31T01:53:20.471Z,1002.6
2017-08-31T01:54:20.500Z,1002.64
2017-08-31T01:55:20.429Z,1002.72
2017-08-31T01:56:20.411Z,1002.73
2017-08-31T01:57:20.391Z,1002.73
2017-08-31T01:58:20.373Z,1002.73
2017-08-31T01:59:20.351Z,1002.69
2017-08-31T02:00:20.331Z,1002.66
2017-08-31T02:01:20.309Z,1002.7
2017-08-31T02:02:20.288Z,1002.72
2017-08-31T02:03:20.269Z,1002.69
2017-08-31T02:04:20.257Z,1002.71
2017-08-31T02:05:20.229Z,1002.69
2017-08-31T02:06:20.209Z,1002.68
2017-08-31T02:07:20.192Z,1002.67
2017-08-31T02:08:20.172Z,1002.67
2017-08-31T02:09:20.152Z,1002.63
2017-08-31T02:10:20.129Z,1002.64
2017-08-31T02:11:20.107Z,1002.58
2017-08-31T02:12:20.095Z,1002.59
2017-08-31T02:13:20.067Z,1002.55
2017-08-31T02:14:20.050Z,1002.58
2017-08-31T02:15:20.028Z,1002.51
2017-08-31T02:16:20.008Z,1002.57
2017-08-31T02:17:19.988Z,1002.64
2017-08-31T02:18:19.966Z,1002.64
2017-08-31T02:19:20.097Z,1002.69
2017-08-31T02:20:19.926Z,1002.67
2017-08-31T02:21:19.910Z,1002.61
2017-08-31T02:22:19.886Z,1002.63
2017-08-31T02:23:19.867Z,1002.66
2017-08-31T02:24:19.845Z,1002.71
2017-08-31T02:25:19.824Z,1002.75
2017-08-31T02:26:19.813Z,1002.77
2017-08-31T02:27:19.786Z,1002.75
2017-08-31T02:28:19.762Z,1002.77
2017-08-31T02:29:19.744Z,1002.77
2017-08-31T02:30:19.724Z,1002.8
2017-08-31T02:31:19.705Z,1002.86
2017-08-31T02:32:19.684Z,1002.86
2017-08-31T02:33:19.663Z,1002.91
2017-08-31T02:34:19.647Z,1002.95
2017-08-31T02:35:19.622Z,1002.96
2017-08-31T02:36:19.600Z,1002.95
2017-08-31T02:37:19.633Z,1003
2017-08-31T02:38:19.562Z,1002.97
2017-08-31T02:39:19.541Z,1003.01
2017-08-31T02:40:19.520Z,1003.01
2017-08-31T02:41:19.501Z,1002.99
2017-08-31T02:42:19.480Z,1002.97
2017-08-31T02:43:19.459Z,1002.93
2017-08-31T02:44:19.439Z,1002.87
2017-08-31T02:45:19.418Z,1002.83
2017-08-31T02:46:19.446Z,1002.76
2017-08-31T02:47:19.377Z,1002.68
2017-08-31T02:48:19.362Z,1002.72
2017-08-31T02:49:19.337Z,1002.71
2017-08-31T02:50:19.320Z,1002.74
2017-08-31T02:51:19.296Z,1002.8
2017-08-31T02:52:19.276Z,1002.8
2017-08-31T02:53:19.259Z,1002.87
2017-08-31T02:54:19.235Z,1002.95
2017-08-31T02:55:19.216Z,1002.96
2017-08-31T02:56:19.192Z,1002.97
2017-08-31T02:57:19.173Z,1003
2017-08-31T02:58:19.153Z,1003.01
2017-08-31T02:59:19.133Z,1002.99
2017-08-31T03:00:19.112Z,1002.96
2017-08-31T03:01:19.090Z,1003.05
2017-08-31T03:02:19.071Z,1003.08
2017-08-31T03:03:19.050Z,1003.14
2017-08-31T03:04:19.030Z,1003.12
2017-08-31T03:05:19.009Z,1003.2
2017-08-31T03:06:18.990Z,1003.21
2017-08-31T03:07:18.967Z,1003.25
2017-08-31T03:08:18.948Z,1003.28
2017-08-31T03:09:18.933Z,1003.28
2017-08-31T03:10:18.907Z,1003.31
2017-08-31T03:11:18.889Z,1003.24
2017-08-31T03:12:18.871Z,1003.25
2017-08-31T03:13:18.846Z,1003.15
2017-08-31T03:14:18.827Z,1003.1
2017-08-31T03:15:18.851Z,1003.13
2017-08-31T03:16:18.784Z,1003.12
2017-08-31T03:17:18.767Z,1003.17
2017-08-31T03:18:18.744Z,1003.18
2017-08-31T03:19:18.725Z,1003.2
2017-08-31T03:20:18.701Z,1003.19
2017-08-31T03:21:18.682Z,1003.26
2017-08-31T03:22:18.661Z,1003.29
2017-08-31T03:23:18.639Z,1003.23
2017-08-31T03:24:18.620Z,1003.28
2017-08-31T03:25:18.599Z,1003.29
2017-08-31T03:26:18.579Z,1003.23
2017-08-31T03:27:18.607Z,1003.24
2017-08-31T03:28:18.538Z,1003.25
2017-08-31T03:29:18.515Z,1003.25
2017-08-31T03:30:18.499Z,1003.28
2017-08-31T03:31:18.474Z,1003.25
2017-08-31T03:32:18.452Z,1003.24
2017-08-31T03:33:18.437Z,1003.24
2017-08-31T03:34:18.422Z,1003.26
2017-08-31T03:35:18.392Z,1003.23
2017-08-31T03:36:18.369Z,1003.26
2017-08-31T03:37:18.349Z,1003.22
2017-08-31T03:38:18.329Z,1003.18
2017-08-31T03:39:18.308Z,1003.15
2017-08-31T03:40:18.287Z,1003.17
2017-08-31T03:41:18.316Z,1003.13
2017-08-31T03:42:18.247Z,1003.19
2017-08-31T03:43:18.227Z,1003.15
2017-08-31T03:44:18.204Z,1003.24
2017-08-31T03:45:18.184Z,1003.22
2017-08-31T03:46:18.166Z,1003.21
2017-08-31T03:47:18.142Z,1003.22
2017-08-31T03:48:18.122Z,1003.24
2017-08-31T03:49:18.100Z,1003.22
2017-08-31T03:50:18.079Z,1003.24
2017-08-31T03:51:18.061Z,1003.27
2017-08-31T03:52:18.036Z,1003.23
2017-08-31T03:53:18.017Z,1003.16
2017-08-31T03:54:17.996Z,1003.18
2017-08-31T03:55:18.028Z,1003.15
2017-08-31T03:56:17.954Z,1003.17
2017-08-31T03:57:17.936Z,1003.19
2017-08-31T03:58:17.912Z,1003.21
2017-08-31T03:59:17.891Z,1003.17
2017-08-31T04:00:17.871Z,1003.14
2017-08-31T04:01:17.849Z,1003.18
2017-08-31T04:02:17.831Z,1003.21
2017-08-31T04:03:17.808Z,1003.28
2017-08-31T04:04:17.810Z,1003.34
2017-08-31T04:05:17.767Z,1003.4
2017-08-31T04:06:17.745Z,1003.44
2017-08-31T04:07:17.729Z,1003.42
2017-08-31T04:08:17.704Z,1003.44
2017-08-31T04:09:17.683Z,1003.45
2017-08-31T04:10:17.662Z,1003.43
2017-08-31T04:11:17.641Z,1003.4
2017-08-31T04:12:17.622Z,1003.39
2017-08-31T04:13:17.600Z,1003.4
2017-08-31T04:14:17.584Z,1003.41
2017-08-31T04:15:17.562Z,1003.45
2017-08-31T04:16:17.538Z,1003.45
2017-08-31T04:17:17.520Z,1003.49
2017-08-31T04:18:17.497Z,1003.51
2017-08-31T04:19:17.478Z,1003.51
2017-08-31T04:20:17.454Z,1003.55
2017-08-31T04:21:17.483Z,1003.56
2017-08-31T04:22:17.413Z,1003.53
2017-08-31T04:23:17.442Z,1003.44
2017-08-31T04:24:17.374Z,1003.4
2017-08-31T04:25:17.350Z,1003.45
2017-08-31T04:26:17.330Z,1003.41
2017-08-31T04:27:17.314Z,1003.48
2017-08-31T04:28:17.288Z,1003.49
2017-08-31T04:29:17.269Z,1003.48
2017-08-31T04:30:17.247Z,1003.46
2017-08-31T04:31:17.225Z,1003.51
2017-08-31T04:32:17.206Z,1003.49
2017-08-31T04:33:17.184Z,1003.49
2017-08-31T04:34:17.163Z,1003.42
2017-08-31T04:35:17.141Z,1003.41
2017-08-31T04:36:17.123Z,1003.47
2017-08-31T04:37:17.099Z,1003.39
2017-08-31T04:38:17.078Z,1003.49
2017-08-31T04:39:17.059Z,1003.55
2017-08-31T04:40:17.037Z,1003.61
2017-08-31T04:41:17.018Z,1003.67
2017-08-31T04:42:17.001Z,1003.71
2017-08-31T04:43:16.976Z,1003.73
2017-08-31T04:44:16.955Z,1003.73
2017-08-31T04:45:16.937Z,1003.72
2017-08-31T04:46:16.914Z,1003.71
2017-08-31T04:47:16.893Z,1003.64
2017-08-31T04:48:16.872Z,1003.63
2017-08-31T04:49:16.902Z,1003.62
2017-08-31T04:50:16.835Z,1003.63
2017-08-31T04:51:16.814Z,1003.66
2017-08-31T04:52:16.790Z,1003.67
2017-08-31T04:53:16.775Z,1003.68
2017-08-31T04:54:16.749Z,1003.67
2017-08-31T04:55:16.744Z,1003.68
2017-08-31T04:56:16.709Z,1003.75
2017-08-31T04:57:16.685Z,1003.77
2017-08-31T04:58:16.668Z,1003.8
2017-08-31T04:59:16.645Z,1003.82
2017-08-31T05:00:16.623Z,1003.8
2017-08-31T05:01:16.600Z,1003.85
2017-08-31T05:02:16.579Z,1003.74
2017-08-31T05:03:16.556Z,1003.73
2017-08-31T05:04:16.536Z,1003.74
2017-08-31T05:05:16.520Z,1003.77
2017-08-31T05:06:16.494Z,1003.85
2017-08-31T05:07:16.477Z,1003.89
2017-08-31T05:08:16.453Z,1003.9
2017-08-31T05:09:16.432Z,1003.93
2017-08-31T05:10:16.412Z,1003.95
2017-08-31T05:11:16.390Z,1003.98
2017-08-31T05:12:16.371Z,1003.98
2017-08-31T05:13:16.349Z,1004.02
2017-08-31T05:14:16.330Z,1004.01
2017-08-31T05:15:16.311Z,1003.97
2017-08-31T05:16:16.286Z,1004
2017-08-31T05:17:16.269Z,1004
2017-08-31T05:18:16.250Z,1004.04
2017-08-31T05:19:16.225Z,1004.09
2017-08-31T05:20:16.205Z,1004.16
2017-08-31T05:21:16.189Z,1004.13
2017-08-31T05:22:16.166Z,1004.2
2017-08-31T05:23:16.142Z,1004.22
2017-08-31T05:24:16.120Z,1004.25
2017-08-31T05:25:16.103Z,1004.27
2017-08-31T05:26:16.082Z,1004.3
2017-08-31T05:27:16.059Z,1004.33
2017-08-31T05:28:16.035Z,1004.33
2017-08-31T05:29:16.024Z,1004.35
2017-08-31T05:30:15.995Z,1004.35
2017-08-31T05:31:15.973Z,1004.35
2017-08-31T05:32:15.959Z,1004.45
2017-08-31T05:33:15.939Z,1004.51
2017-08-31T05:34:15.913Z,1004.52
2017-08-31T05:35:15.898Z,1004.57
2017-08-31T05:36:15.873Z,1004.55
2017-08-31T05:37:15.852Z,1004.61
2017-08-31T05:38:15.833Z,1004.57
2017-08-31T05:39:15.807Z,1004.63
2017-08-31T05:40:15.787Z,1004.65
2017-08-31T05:41:15.815Z,1004.71
2017-08-31T05:42:15.748Z,1004.7
2017-08-31T05:43:15.723Z,1004.75
2017-08-31T05:44:15.705Z,1004.8
2017-08-31T05:45:15.683Z,1004.79
2017-08-31T05:46:15.661Z,1004.79
2017-08-31T05:47:15.640Z,1004.83
2017-08-31T05:48:15.619Z,1004.75
2017-08-31T05:49:15.598Z,1004.83
2017-08-31T05:50:15.577Z,1004.82
2017-08-31T05:51:15.558Z,1004.83
2017-08-31T05:52:15.536Z,1004.78
2017-08-31T05:53:15.515Z,1004.83
2017-08-31T05:54:15.494Z,1004.79
2017-08-31T05:55:15.473Z,1004.82
2017-08-31T05:56:15.452Z,1004.87
2017-08-31T05:57:15.429Z,1004.92
2017-08-31T05:58:15.410Z,1004.97
2017-08-31T05:59:15.390Z,1004.94
2017-08-31T06:00:15.369Z,1004.9
2017-08-31T06:01:15.347Z,1004.93
2017-08-31T06:02:15.328Z,1005.01
2017-08-31T06:03:15.307Z,1005.02
2017-08-31T06:04:15.284Z,1005.04
2017-08-31T06:05:15.263Z,1005.08
2017-08-31T06:06:15.243Z,1005.09
2017-08-31T06:07:15.220Z,1005.03
2017-08-31T06:08:15.200Z,1005.05
2017-08-31T06:09:15.179Z,1005.09
2017-08-31T06:10:15.158Z,1005.08
2017-08-31T06:11:15.145Z,1005.12
2017-08-31T06:12:15.171Z,1005.11
2017-08-31T06:13:15.096Z,1005.12
2017-08-31T06:14:15.073Z,1005.14
2017-08-31T06:15:15.055Z,1005.14
2017-08-31T06:16:15.057Z,1005.12
2017-08-31T06:17:15.013Z,1005.2
2017-08-31T06:18:15.001Z,1005.16
2017-08-31T06:19:14.971Z,1005.22
2017-08-31T06:20:14.950Z,1005.23
2017-08-31T06:21:14.928Z,1005.24
2017-08-31T06:22:14.907Z,1005.25
2017-08-31T06:23:14.886Z,1005.25
2017-08-31T06:24:14.863Z,1005.34
2017-08-31T06:25:14.848Z,1005.35
2017-08-31T06:26:14.825Z,1005.39
2017-08-31T06:27:14.802Z,1005.39
2017-08-31T06:28:14.782Z,1005.38
2017-08-31T06:29:14.757Z,1005.37
2017-08-31T06:30:14.737Z,1005.38
2017-08-31T06:31:14.719Z,1005.43
2017-08-31T06:32:14.697Z,1005.48
2017-08-31T06:33:14.676Z,1005.47
2017-08-31T06:34:14.654Z,1005.49
2017-08-31T06:35:14.632Z,1005.45
2017-08-31T06:36:14.612Z,1005.48
2017-08-31T06:37:14.641Z,1005.39
2017-08-31T06:38:14.572Z,1005.5
2017-08-31T06:39:14.547Z,1005.5
2017-08-31T06:40:14.526Z,1005.52
2017-08-31T06:41:14.505Z,1005.52
2017-08-31T06:42:14.481Z,1005.54
2017-08-31T06:43:14.462Z,1005.56
2017-08-31T06:44:14.440Z,1005.55
2017-08-31T06:45:14.419Z,1005.55
2017-08-31T06:46:14.400Z,1005.52
2017-08-31T06:47:14.376Z,1005.56
2017-08-31T06:48:14.356Z,1005.61
2017-08-31T06:49:14.331Z,1005.63
2017-08-31T06:50:14.316Z,1005.67
2017-08-31T06:51:14.293Z,1005.67
2017-08-31T06:52:14.273Z,1005.72
2017-08-31T06:53:14.252Z,1005.71
2017-08-31T06:54:14.232Z,1005.71
2017-08-31T06:55:14.207Z,1005.73
2017-08-31T06:56:14.186Z,1005.74
2017-08-31T06:57:14.167Z,1005.79
2017-08-31T06:58:14.145Z,1005.81
2017-08-31T06:59:14.123Z,1005.81
2017-08-31T07:00:14.107Z,1005.85
2017-08-31T07:01:14.083Z,1005.85
2017-08-31T07:02:14.057Z,1005.87
2017-08-31T07:03:14.040Z,1005.87
2017-08-31T07:04:14.020Z,1005.92
2017-08-31T07:05:13.997Z,1005.93
2017-08-31T07:06:13.976Z,1005.97
2017-08-31T07:07:13.955Z,1006.02
2017-08-31T07:08:13.934Z,1006.02
2017-08-31T07:09:13.918Z,1006.08
2017-08-31T07:10:13.895Z,1006.07
2017-08-31T07:11:13.870Z,1006.1
2017-08-31T07:12:13.849Z,1006.1
2017-08-31T07:13:13.827Z,1006.11
2017-08-31T07:14:13.806Z,1006.15
2017-08-31T07:15:13.785Z,1006.21
2017-08-31T07:16:13.764Z,1006.24
2017-08-31T07:17:13.743Z,1006.27
2017-08-31T07:18:13.722Z,1006.26
2017-08-31T07:19:13.701Z,1006.25
2017-08-31T07:20:13.683Z,1006.28
2017-08-31T07:21:13.660Z,1006.28
2017-08-31T07:22:13.636Z,1006.38
2017-08-31T07:23:13.619Z,1006.42
2017-08-31T07:24:13.596Z,1006.44
2017-08-31T07:25:13.575Z,1006.49
2017-08-31T07:26:13.553Z,1006.54
2017-08-31T07:27:13.533Z,1006.61
2017-08-31T07:28:13.512Z,1006.59
2017-08-31T07:29:13.544Z,1006.67
2017-08-31T07:30:13.469Z,1006.68
2017-08-31T07:31:13.453Z,1006.69
2017-08-31T07:32:13.428Z,1006.67
2017-08-31T07:33:13.406Z,1006.74
2017-08-31T07:34:13.390Z,1006.79
2017-08-31T07:35:13.363Z,1006.79
2017-08-31T07:36:13.344Z,1006.82
2017-08-31T07:37:13.323Z,1006.84
2017-08-31T07:38:13.308Z,1006.81
2017-08-31T07:39:13.280Z,1006.92
2017-08-31T07:40:13.264Z,1006.92
2017-08-31T07:41:13.241Z,1006.91
2017-08-31T07:42:13.217Z,1006.94
2017-08-31T07:43:13.196Z,1006.97
2017-08-31T07:44:13.173Z,1006.94
2017-08-31T07:45:13.155Z,1006.99
2017-08-31T07:46:13.133Z,1006.99
2017-08-31T07:47:13.146Z,1007.01
2017-08-31T07:48:13.095Z,1007
2017-08-31T07:49:13.070Z,1007.01
2017-08-31T07:50:13.052Z,1006.98
2017-08-31T07:51:13.030Z,1006.98
2017-08-31T07:52:13.010Z,1006.91
2017-08-31T07:53:12.988Z,1006.9
2017-08-31T07:54:12.968Z,1006.9
2017-08-31T07:55:12.949Z,1006.85
2017-08-31T07:56:12.925Z,1006.85
2017-08-31T07:57:12.904Z,1006.91
2017-08-31T07:58:12.887Z,1006.93
2017-08-31T07:59:12.866Z,1006.9
2017-08-31T08:00:12.895Z,1006.95
2017-08-31T08:01:12.825Z,1007
2017-08-31T08:02:12.810Z,1007.08
2017-08-31T08:03:12.782Z,1007.1
2017-08-31T08:04:12.768Z,1007.16
2017-08-31T08:05:12.742Z,1007.23
2017-08-31T08:06:12.720Z,1007.25
2017-08-31T08:07:12.702Z,1007.3
2017-08-31T08:08:12.682Z,1007.27
2017-08-31T08:09:12.662Z,1007.3
2017-08-31T08:10:12.638Z,1007.27
2017-08-31T08:11:12.617Z,1007.27
2017-08-31T08:12:12.596Z,1007.29
2017-08-31T08:13:12.580Z,1007.24
2017-08-31T08:14:12.558Z,1007.28
2017-08-31T08:15:12.584Z,1007.23
2017-08-31T08:16:12.517Z,1007.26
2017-08-31T08:17:12.498Z,1007.31
2017-08-31T08:18:12.479Z,1007.24
2017-08-31T08:19:12.455Z,1007.3
2017-08-31T08:20:12.485Z,1007.27
2017-08-31T08:21:12.411Z,1007.3
2017-08-31T08:22:12.390Z,1007.35
2017-08-31T08:23:12.373Z,1007.38
2017-08-31T08:24:12.352Z,1007.5
2017-08-31T08:25:12.334Z,1007.49
2017-08-31T08:26:12.319Z,1007.55
2017-08-31T08:27:12.292Z,1007.54
2017-08-31T08:28:12.273Z,1007.58
2017-08-31T08:29:12.249Z,1007.57
2017-08-31T08:30:12.229Z,1007.68
2017-08-31T08:31:12.207Z,1007.75
2017-08-31T08:32:12.185Z,1007.79
2017-08-31T08:33:12.169Z,1007.77
2017-08-31T08:34:12.145Z,1007.77
2017-08-31T08:35:12.125Z,1007.79
2017-08-31T08:36:12.108Z,1007.76
2017-08-31T08:37:12.084Z,1007.75
2017-08-31T08:38:12.064Z,1007.77
2017-08-31T08:39:12.043Z,1007.8
2017-08-31T08:40:12.020Z,1007.79
2017-08-31T08:41:12.006Z,1007.86
2017-08-31T08:42:11.982Z,1007.92
2017-08-31T08:43:11.960Z,1007.95
2017-08-31T08:44:11.939Z,1007.98
2017-08-31T08:45:11.915Z,1007.98
2017-08-31T08:46:11.900Z,1007.99
2017-08-31T08:47:11.876Z,1007.96
2017-08-31T08:48:11.863Z,1007.98
2017-08-31T08:49:11.837Z,1008.03
2017-08-31T08:50:11.818Z,1008.02
2017-08-31T08:51:11.799Z,1008.04
2017-08-31T08:52:11.772Z,1008.05
2017-08-31T08:53:11.752Z,1008.09
2017-08-31T08:54:11.733Z,1008.07
2017-08-31T08:55:11.709Z,1008.1
2017-08-31T08:56:11.692Z,1008.13
2017-08-31T08:57:11.670Z,1008.08
2017-08-31T08:58:11.660Z,1008.16
2017-08-31T08:59:11.626Z,1008.19
2017-08-31T09:00:11.625Z,1008.19
2017-08-31T09:01:11.586Z,1008.22
2017-08-31T09:02:11.569Z,1008.26
2017-08-31T09:03:11.546Z,1008.29
2017-08-31T09:04:11.525Z,1008.28
2017-08-31T09:05:11.509Z,1008.26
2017-08-31T09:06:11.488Z,1008.3
2017-08-31T09:07:11.467Z,1008.36
2017-08-31T09:08:11.444Z,1008.34
2017-08-31T09:09:11.424Z,1008.37
2017-08-31T09:10:11.407Z,1008.44
2017-08-31T09:11:11.384Z,1008.43
2017-08-31T09:12:11.360Z,1008.47
2017-08-31T09:13:11.342Z,1008.44
2017-08-31T09:14:11.322Z,1008.47
2017-08-31T09:15:11.300Z,1008.54
2017-08-31T09:16:11.281Z,1008.51
2017-08-31T09:17:11.259Z,1008.45
2017-08-31T09:18:11.239Z,1008.55
2017-08-31T09:19:11.218Z,1008.54
2017-08-31T09:20:11.199Z,1008.54
2017-08-31T09:21:11.178Z,1008.56
2017-08-31T09:22:11.157Z,1008.56
2017-08-31T09:23:11.141Z,1008.59
2017-08-31T09:24:11.120Z,1008.64
2017-08-31T09:25:11.098Z,1008.59
2017-08-31T09:26:11.078Z,1008.63
2017-08-31T09:27:11.061Z,1008.66
2017-08-31T09:28:11.038Z,1008.67
2017-08-31T09:29:11.018Z,1008.64
2017-08-31T09:30:10.999Z,1008.64
2017-08-31T09:31:10.983Z,1008.68
2017-08-31T09:32:10.959Z,1008.67
2017-08-31T09:33:10.940Z,1008.68
2017-08-31T09:34:10.920Z,1008.7
2017-08-31T09:35:10.903Z,1008.74
2017-08-31T09:36:10.878Z,1008.78
2017-08-31T09:37:10.861Z,1008.73
2017-08-31T09:38:10.839Z,1008.74
2017-08-31T09:39:10.823Z,1008.73
2017-08-31T09:40:10.794Z,1008.72
2017-08-31T09:41:10.779Z,1008.74
2017-08-31T09:42:10.762Z,1008.77
2017-08-31T09:43:10.739Z,1008.79
2017-08-31T09:44:10.724Z,1008.81
2017-08-31T09:45:10.702Z,1008.81
2017-08-31T09:46:10.680Z,1008.84
2017-08-31T09:47:10.661Z,1008.78
2017-08-31T09:48:10.643Z,1008.79
2017-08-31T09:49:10.628Z,1008.8
2017-08-31T09:50:10.601Z,1008.83
2017-08-31T09:51:10.582Z,1008.86
2017-08-31T09:52:10.563Z,1008.86
2017-08-31T09:53:10.553Z,1008.79
2017-08-31T09:54:10.523Z,1008.89
2017-08-31T09:55:10.505Z,1008.91
2017-08-31T09:56:10.488Z,1008.91
2017-08-31T09:57:10.466Z,1008.89
2017-08-31T09:58:10.453Z,1008.95
2017-08-31T09:59:10.434Z,1008.92
2017-08-31T10:00:10.408Z,1008.92
2017-08-31T10:01:10.389Z,1009.02
2017-08-31T10:02:10.370Z,1009.02
2017-08-31T10:03:10.351Z,1009.09
2017-08-31T10:04:10.335Z,1009.13
2017-08-31T10:05:10.313Z,1009.12
2017-08-31T10:06:10.291Z,1009.07
2017-08-31T10:07:10.276Z,1009.11
2017-08-31T10:08:10.253Z,1009.24
2017-08-31T10:09:10.288Z,1009.24
2017-08-31T10:10:10.216Z,1009.3
2017-08-31T10:11:10.195Z,1009.24
2017-08-31T10:12:10.175Z,1009.34
2017-08-31T10:13:10.154Z,1009.31
2017-08-31T10:14:10.137Z,1009.32
2017-08-31T10:15:10.117Z,1009.35
2017-08-31T10:16:10.097Z,1009.36
2017-08-31T10:17:10.079Z,1009.41
2017-08-31T10:18:10.057Z,1009.43
2017-08-31T10:19:10.040Z,1009.39
2017-08-31T10:20:10.017Z,1009.45
2017-08-31T10:21:10.044Z,1009.42
2017-08-31T10:22:09.979Z,1009.43
2017-08-31T10:23:09.964Z,1009.35
2017-08-31T10:24:09.935Z,1009.42
2017-08-31T10:25:09.918Z,1009.48
2017-08-31T10:26:09.893Z,1009.48
2017-08-31T10:27:09.880Z,1009.49
2017-08-31T10:28:09.859Z,1009.49
2017-08-31T10:29:09.842Z,1009.5
2017-08-31T10:30:09.819Z,1009.54
2017-08-31T10:31:09.795Z,1009.57
2017-08-31T10:32:09.779Z,1009.55
2017-08-31T10:33:09.760Z,1009.56
2017-08-31T10:34:09.740Z,1009.55
2017-08-31T10:35:09.718Z,1009.52
2017-08-31T10:36:09.719Z,1009.54
2017-08-31T10:37:09.686Z,1009.51
2017-08-31T10:38:09.661Z,1009.58
2017-08-31T10:39:09.640Z,1009.58
2017-08-31T10:40:09.621Z,1009.57
2017-08-31T10:41:09.603Z,1009.59
2017-08-31T10:42:09.588Z,1009.59
2017-08-31T10:43:09.565Z,1009.64
2017-08-31T10:44:09.545Z,1009.62
2017-08-31T10:45:09.527Z,1009.61
2017-08-31T10:46:09.506Z,1009.72
2017-08-31T10:47:09.490Z,1009.64
2017-08-31T10:48:09.473Z,1009.69
2017-08-31T10:49:09.451Z,1009.76
2017-08-31T10:50:09.484Z,1009.79
2017-08-31T10:51:09.415Z,1009.73
2017-08-31T10:52:09.397Z,1009.81
2017-08-31T10:53:09.379Z,1009.79
2017-08-31T10:54:09.357Z,1009.81
2017-08-31T10:55:09.340Z,1009.81
2017-08-31T10:56:09.319Z,1009.79
2017-08-31T10:57:09.300Z,1009.8
2017-08-31T10:58:09.280Z,1009.81
2017-08-31T10:59:09.262Z,1009.82
2017-08-31T11:00:09.246Z,1009.88
2017-08-31T11:01:09.328Z,1009.86
2017-08-31T11:02:09.208Z,1009.89
2017-08-31T11:03:09.187Z,1009.89
2017-08-31T11:04:09.171Z,1009.83
2017-08-31T11:05:09.146Z,1009.9
2017-08-31T11:06:09.137Z,1009.91
2017-08-31T11:07:09.108Z,1009.91
2017-08-31T11:08:09.089Z,1009.92
2017-08-31T11:09:09.077Z,1009.93
2017-08-31T11:10:09.058Z,1009.95
2017-08-31T11:11:09.037Z,1009.95
2017-08-31T11:12:09.018Z,1009.96
2017-08-31T11:13:08.996Z,1010
2017-08-31T11:14:08.979Z,1010.04
2017-08-31T11:15:08.962Z,1009.99
2017-08-31T11:16:08.942Z,1010.05
2017-08-31T11:17:08.923Z,1010
2017-08-31T11:18:08.902Z,1010.03
2017-08-31T11:19:09.029Z,1010.07
2017-08-31T11:20:08.860Z,1010.04
2017-08-31T11:21:08.840Z,1010.07
2017-08-31T11:22:08.821Z,1010.08
2017-08-31T11:23:08.802Z,1010.08
2017-08-31T11:24:08.787Z,1010.06
2017-08-31T11:25:08.764Z,1010.07
2017-08-31T11:26:08.742Z,1010.05
2017-08-31T11:27:08.777Z,1010.06
2017-08-31T11:28:08.772Z,1010.08
2017-08-31T11:29:08.788Z,1010.13
2017-08-31T11:30:08.677Z,1010.19
2017-08-31T11:31:08.773Z,1010.18
2017-08-31T11:32:08.738Z,1010.21
2017-08-31T11:33:08.701Z,1010.22
2017-08-31T11:34:08.623Z,1010.27
2017-08-31T11:35:08.573Z,1010.3
2017-08-31T11:36:08.662Z,1010.33
2017-08-31T11:37:08.612Z,1010.34
2017-08-31T11:38:08.514Z,1010.43
2017-08-31T11:39:08.491Z,1010.4
2017-08-31T11:40:08.476Z,1010.42
2017-08-31T11:41:08.453Z,1010.46
2017-08-31T11:42:08.445Z,1010.49
2017-08-31T11:43:08.418Z,1010.49
2017-08-31T11:44:08.393Z,1010.49
2017-08-31T11:45:08.377Z,1010.49
2017-08-31T11:46:08.360Z,1010.55
2017-08-31T11:47:08.339Z,1010.61
2017-08-31T11:48:08.319Z,1010.59
2017-08-31T11:49:08.299Z,1010.6
2017-08-31T11:50:08.282Z,1010.68
2017-08-31T11:51:08.260Z,1010.68
2017-08-31T11:52:08.242Z,1010.68
2017-08-31T11:53:08.219Z,1010.68
2017-08-31T11:54:08.195Z,1010.7
2017-08-31T11:55:08.182Z,1010.71
2017-08-31T11:56:08.171Z,1010.68
2017-08-31T11:57:08.139Z,1010.69
2017-08-31T11:58:08.128Z,1010.68
2017-08-31T11:59:08.098Z,1010.72
2017-08-31T12:00:08.081Z,1010.74
2017-08-31T12:01:08.067Z,1010.76
2017-08-31T12:02:08.044Z,1010.77
2017-08-31T12:03:08.081Z,1010.83
2017-08-31T12:04:08.006Z,1010.83
2017-08-31T12:05:08.238Z,1010.93
2017-08-31T12:06:07.971Z,1011
2017-08-31T12:07:07.951Z,1011.03
2017-08-31T12:08:07.933Z,1011.07